首页
METAR-TAF:

METAR-TAF

机场 :

温贝托·德尔加多机场

里斯本, 葡萄牙

纬度: 38-46N, 经度: 009-08W, 海拔: 114米

当前天气观测

该预报发布于27分钟前的23:30 UTC
风速1节,风向多变
温度 16°C
湿度 88%
气压 1019 hPa
能见度10公里或以上
少量云层高于3000英尺

METAR: LPPT 212330Z VRB01KT 9999 FEW030 16/14 Q1019

时间: 00:57 (23:57 UTC)

预报

该预报发布于57分钟前的23:00 UTC
预报有效从22日的 00点(UTC)到 23日的 06点(UTC)
风速3节,风向多变
能见度10公里或以上
少量云层高于1500英尺
成为
从 22日的 02点(UTC)到 22日的 05点(UTC)
风速5节,风向东转东北
能見度: 3000
散云层高于300英尺
轻雾
几率 30%
从 22日的 05点(UTC)到 22日的 09点(UTC)
能見度: 0200
层高于100英尺
成为
从 22日的 10点(UTC)到 22日的 12点(UTC)
能见度10公里或以上
少量云层高于2000英尺
短暂存在
从 22日的 12点(UTC)到 22日的 18点(UTC)
风速3节,风向多变
少量云层高于2500英尺
少量云层高于3500英尺, 塔状积云.
成为
从 22日的 18点(UTC)到 22日的 20点(UTC)
风速7节,风向北转西北
成为
从 23日的 00点(UTC)到 23日的 03点(UTC)
风速5节,风向东北
少量云层高于500英尺

TAF: LPPT 212300Z 2200/2306 VRB03KT 9999 FEW015 BECMG 2202/2205 06005KT 3000 BR SCT003 PROB30 2205/2209 0200 FG VV001 BECMG 2210/2212 9999 NSW FEW020 TEMPO 2212/2218 VRB03KT FEW025 FEW035TCU BECMG 2218/2220 34007KT BECMG 2300/2303 04005KT FEW005

超过4000个机场的气象观测和天气预报(METAR&TAF报告)。

可查询的气象台以黄色和红色小点在地图上表示。

将鼠标移到小点上方,可查看气象台名称。

然后点击查看天气观测和预报。

如需切换地图:点击带黑十字的绿色按钮放大地图;点击带横线的绿色按钮缩小地图;或者点击绿色箭头查看邻近地区的地图。


METAR-TAF: